Time;durP1;ratioP1;P1;durP2;ratioP2;P2;SDS_P1;SDS_P2;PMS_P1;PMS_P2;Temp;Humidity;BMP_temperature;BMP_pressure;BME280_temperature;BME280_humidity;BME280_pressure;Samples;Min_cycle;Max_cycle;Signal;HPM_P1;HPM_P2
2023/02/02 00:02:08;;;;;;;1.75;1.38;;;;;;;1.51;79.83;96889.06;5004773;28;20050;-61
2023/02/02 00:04:35;;;;;;;1.25;1.25;;;;;;;1.56;79.01;96897.06;5003898;28;20049;-61
2023/02/02 00:07:04;;;;;;;1.58;1.02;;;;;;;1.73;77.65;96892.78;5004451;28;20108;-60
2023/02/02 00:09:31;;;;;;;0.95;0.82;;;;;;;2.12;72.64;96890.00;5005471;28;20605;-60
2023/02/02 00:11:59;;;;;;;1.95;0.70;;;;;;;2.75;68.49;96884.66;5004254;28;20089;-60
2023/02/02 00:14:26;;;;;;;0.50;0.50;;;;;;;3.37;65.41;96880.28;5005237;28;20045;-60
2023/02/02 00:16:55;;;;;;;0.68;0.68;;;;;;;3.65;64.17;96843.09;5004683;28;20052;-60
2023/02/02 00:19:26;;;;;;;0.50;0.50;;;;;;;4.02;63.05;96864.16;5003675;28;20163;-61
2023/02/02 00:21:54;;;;;;;0.50;0.50;;;;;;;4.08;62.36;96868.31;5003186;28;20057;-60
2023/02/02 00:24:21;;;;;;;0.60;0.60;;;;;;;4.22;61.35;96860.63;5003986;28;20116;-61
2023/02/02 00:26:51;;;;;;;1.35;1.02;;;;;;;4.51;60.72;96893.47;5004389;28;20089;-60
2023/02/02 00:29:23;;;;;;;1.65;1.08;;;;;;;4.60;60.70;96907.91;5005377;28;20143;-62
2023/02/02 00:31:50;;;;;;;0.55;0.52;;;;;;;4.67;60.37;96896.41;5004955;28;20075;-60
2023/02/02 00:34:17;;;;;;;1.60;1.50;;;;;;;4.68;60.65;96896.06;5005660;28;20065;-62
2023/02/02 00:36:45;;;;;;;1.00;1.00;;;;;;;4.75;60.79;96886.50;5004873;28;20136;-60
2023/02/02 00:39:15;;;;;;;3.75;1.70;;;;;;;4.61;61.61;96854.69;5004566;28;20050;-61
2023/02/02 00:41:42;;;;;;;0.50;0.50;;;;;;;4.27;62.11;96815.75;5004912;28;20112;-60
2023/02/02 00:46:54;;;;;;;0.40;0.40;;;;;;;4.19;63.40;96820.19;5004618;28;20127;-60
2023/02/02 00:49:21;;;;;;;0.50;0.50;;;;;;;4.50;64.68;96874.63;5004641;28;20100;-60
2023/02/02 00:51:47;;;;;;;0.50;0.50;;;;;;;4.48;64.92;96894.16;5004579;28;20061;-60
2023/02/02 00:54:14;;;;;;;0.75;0.52;;;;;;;4.42;66.74;96895.50;5004847;28;20081;-61
2023/02/02 00:56:41;;;;;;;0.77;0.75;;;;;;;4.48;67.89;96894.16;5004229;28;20491;-61
2023/02/02 00:59:08;;;;;;;1.55;1.45;;;;;;;3.99;69.27;96842.91;4991367;28;20532;-60
2023/02/02 01:01:35;;;;;;;2.05;0.88;;;;;;;4.46;69.51;96907.38;5003910;28;20063;-61
2023/02/02 01:04:01;;;;;;;0.85;0.60;;;;;;;4.58;69.36;96914.88;5004346;28;20054;-61
2023/02/02 01:06:28;;;;;;;0.95;0.60;;;;;;;4.34;68.39;96855.22;5004011;28;20100;-60
2023/02/02 01:08:54;;;;;;;0.57;0.57;;;;;;;4.95;69.18;96902.13;5002835;28;20481;-61
2023/02/02 01:11:21;;;;;;;0.82;0.82;;;;;;;4.88;70.03;96918.34;5004131;28;20058;-61
2023/02/02 01:13:48;;;;;;;0.50;0.50;;;;;;;4.80;70.76;96902.75;5003758;28;20045;-60
2023/02/02 01:16:14;;;;;;;1.05;0.82;;;;;;;4.76;71.22;96890.84;5004241;28;20108;-61
2023/02/02 01:18:41;;;;;;;0.65;0.60;;;;;;;4.07;72.72;96822.88;5004110;28;20428;-61
2023/02/02 01:21:11;;;;;;;0.60;0.60;;;;;;;4.58;72.64;96876.47;5003467;28;20108;-61
2023/02/02 01:23:38;;;;;;;0.77;0.77;;;;;;;4.40;74.54;96875.81;5004391;28;20077;-60
2023/02/02 01:26:08;;;;;;;0.40;0.40;;;;;;;4.24;76.23;96874.00;5004004;28;20057;-62
2023/02/02 01:28:36;;;;;;;0.50;0.50;;;;;;;4.26;76.74;96863.50;5007746;28;20049;-60
2023/02/02 01:31:21;;;;;;;1.40;0.80;;;;;;;3.88;77.53;96797.06;5008265;28;20473;-60
2023/02/02 01:33:48;;;;;;;0.40;0.40;;;;;;;4.15;78.34;96863.13;4988719;28;20141;-61
2023/02/02 01:36:18;;;;;;;0.47;0.47;;;;;;;4.13;78.57;96881.81;4987329;28;20078;-61
2023/02/02 01:38:44;;;;;;;0.40;0.40;;;;;;;3.22;78.52;96707.63;5006862;28;20125;-62
2023/02/02 01:41:15;;;;;;;0.50;0.50;;;;;;;3.98;78.98;96835.03;5008113;28;20058;-63
2023/02/02 01:43:42;;;;;;;1.25;1.15;;;;;;;4.07;78.83;96850.28;5007498;28;20108;-61
2023/02/02 01:46:23;;;;;;;0.50;0.50;;;;;;;3.89;77.88;96804.94;5006727;28;20491;-63
2023/02/02 01:49:08;;;;;;;0.50;0.50;;;;;;;4.08;78.16;96843.66;5006481;28;20145;-60
2023/02/02 01:51:50;;;;;;;0.50;0.50;;;;;;;4.04;78.72;96867.38;5007545;28;20061;-61
2023/02/02 01:54:26;;;;;;;1.60;0.85;;;;;;;3.77;79.10;96813.09;5008031;28;20112;-61
2023/02/02 01:57:03;;;;;;;0.43;0.43;;;;;;;3.84;79.58;96801.59;5005970;28;20104;-62
2023/02/02 01:59:30;;;;;;;0.65;0.65;;;;;;;4.07;79.04;96844.78;5007623;28;20066;-61
2023/02/02 02:01:57;;;;;;;0.50;0.50;;;;;;;4.06;79.16;96836.91;5006652;28;20840;-62
2023/02/02 02:04:28;;;;;;;0.43;0.43;;;;;;;4.05;78.72;96841.56;5007791;28;20572;-61
2023/02/02 02:06:54;;;;;;;0.50;0.50;;;;;;;4.04;78.66;96855.63;5007445;28;20451;-61
2023/02/02 02:09:21;;;;;;;1.23;0.65;;;;;;;3.76;78.34;96786.81;5006811;28;20490;-61
2023/02/02 02:11:48;;;;;;;0.93;0.93;;;;;;;4.18;78.02;96856.97;5007151;28;20081;-61
2023/02/02 02:17:07;;;;;;;0.50;0.50;;;;;;;4.28;77.08;96842.06;5007129;28;20089;-61
2023/02/02 02:28:52;;;;;;;0.43;0.43;;;;;;;4.10;76.64;96829.59;5006800;28;20115;-60
2023/02/02 02:31:18;;;;;;;0.40;0.40;;;;;;;4.14;73.97;96847.00;5006823;28;20148;-61
2023/02/02 02:33:48;;;;;;;1.02;0.60;;;;;;;4.12;75.15;96836.38;5006954;28;20437;-60
2023/02/02 02:36:28;;;;;;;0.50;0.50;;;;;;;4.19;71.69;96838.56;5007389;28;20084;-60
2023/02/02 02:39:05;;;;;;;0.50;0.50;;;;;;;4.19;72.38;96847.59;5005559;28;20148;-60
2023/02/02 02:41:38;;;;;;;0.50;0.50;;;;;;;4.04;72.60;96806.28;5006950;28;20068;-61
2023/02/02 02:44:09;;;;;;;0.50;0.50;;;;;;;4.21;68.78;96828.88;5006884;28;20057;-61
2023/02/02 02:46:37;;;;;;;0.50;0.50;;;;;;;3.94;63.26;96771.88;5006682;28;20121;-61
2023/02/02 02:49:06;;;;;;;0.50;0.50;;;;;;;4.48;60.37;96800.91;5004423;28;20604;-60
2023/02/02 02:51:45;;;;;;;0.50;0.50;;;;;;;4.95;60.97;96847.25;5006728;28;20057;-61
2023/02/02 02:54:26;;;;;;;0.60;0.60;;;;;;;4.97;60.08;96842.19;5004501;28;20064;-61
2023/02/02 02:57:05;;;;;;;1.35;0.77;;;;;;;5.05;60.07;96835.81;5006695;28;20423;-61
2023/02/02 02:59:40;;;;;;;0.60;0.60;;;;;;;5.15;58.16;96840.88;5006259;28;20594;-61
2023/02/02 03:02:10;;;;;;;0.60;0.60;;;;;;;5.37;54.26;96849.50;5006449;28;20539;-61
2023/02/02 03:04:36;;;;;;;0.50;0.50;;;;;;;5.53;50.91;96844.13;5005891;28;20053;-61
2023/02/02 03:07:12;;;;;;;0.50;0.50;;;;;;;5.69;51.14;96834.06;5006337;28;20058;-61
2023/02/02 03:09:42;;;;;;;0.60;0.60;;;;;;;5.12;50.35;96761.97;5005236;28;20429;-61
2023/02/02 03:12:09;;;;;;;0.80;0.80;;;;;;;5.78;49.63;96827.31;5006474;28;20089;-61
2023/02/02 03:14:36;;;;;;;0.60;0.60;;;;;;;5.79;50.25;96830.84;5006260;28;20050;-61
2023/02/02 03:17:03;;;;;;;0.50;0.50;;;;;;;5.82;50.51;96832.94;5005920;28;20053;-60
2023/02/02 03:19:30;;;;;;;0.60;0.60;;;;;;;5.80;50.04;96824.22;5004895;28;20128;-61
2023/02/02 03:21:56;;;;;;;1.35;1.35;;;;;;;5.83;49.65;96835.34;5004505;28;20082;-61
2023/02/02 03:24:23;;;;;;;0.88;0.88;;;;;;;5.46;49.92;96780.72;5006335;28;20135;-61
2023/02/02 03:26:50;;;;;;;0.60;0.60;;;;;;;4.90;49.51;96685.56;5005901;28;20092;-61
2023/02/02 03:29:17;;;;;;;2.08;1.90;;;;;;;5.42;48.93;96774.31;5006107;28;20046;-61
2023/02/02 03:31:45;;;;;;;0.60;0.60;;;;;;;5.72;51.86;96819.66;5005421;28;20088;-62
2023/02/02 03:34:12;;;;;;;1.30;0.93;;;;;;;5.26;55.34;96781.63;5005867;28;20093;-62
2023/02/02 03:36:38;;;;;;;5.50;1.10;;;;;;;5.25;57.40;96810.25;5005670;28;20128;-60
2023/02/02 03:39:05;;;;;;;0.63;0.63;;;;;;;4.24;59.18;96679.38;5006184;28;20046;-60
2023/02/02 03:41:31;;;;;;;0.63;0.63;;;;;;;5.02;60.56;96825.53;5003443;28;20690;-60
2023/02/02 03:43:58;;;;;;;0.60;0.60;;;;;;;4.96;60.72;96824.13;5004388;28;20061;-60
2023/02/02 03:46:25;;;;;;;0.60;0.60;;;;;;;4.62;61.40;96784.16;5005415;28;20134;-59
2023/02/02 03:48:51;;;;;;;0.80;0.80;;;;;;;4.81;60.84;96830.25;5003750;28;20058;-63
2023/02/02 03:51:18;;;;;;;1.88;1.77;;;;;;;4.81;61.14;96824.78;5005948;28;20149;-59
2023/02/02 03:53:48;;;;;;;1.58;1.48;;;;;;;4.77;61.01;96834.84;5005926;28;20113;-60
2023/02/02 03:56:15;;;;;;;3.88;1.65;;;;;;;4.52;59.56;96796.34;5005192;28;20520;-62
2023/02/02 03:58:41;;;;;;;4.18;2.45;;;;;;;4.65;59.80;96828.16;5004638;28;20111;-60
2023/02/02 04:01:12;;;;;;;0.85;0.85;;;;;;;4.52;58.27;96812.00;5004054;28;20089;-60
2023/02/02 04:03:39;;;;;;;4.20;1.30;;;;;;;4.38;56.60;96779.38;5005704;28;20050;-60
2023/02/02 04:06:05;;;;;;;12.40;8.48;;;;;;;4.15;56.36;96742.53;5005047;28;20049;-60
2023/02/02 04:08:32;;;;;;;59.22;11.23;;;;;;;4.77;55.46;96829.34;5003970;28;20141;-62
2023/02/02 04:10:59;;;;;;;2.08;1.98;;;;;;;4.78;53.95;96825.44;4999564;28;20137;-63
2023/02/02 04:13:26;;;;;;;3.03;1.45;;;;;;;4.51;52.83;96772.81;4986029;28;20050;-61
2023/02/02 04:16:00;;;;;;;0.68;0.68;;;;;;;4.60;53.19;96776.25;4970453;28;20054;-60
2023/02/02 04:18:27;;;;;;;3.75;0.93;;;;;;;4.59;52.46;96763.69;4985813;28;20066;-62
2023/02/02 04:20:58;;;;;;;0.50;0.50;;;;;;;5.10;49.33;96833.66;5000210;28;20601;-61
2023/02/02 04:23:25;;;;;;;0.50;0.50;;;;;;;5.43;48.45;96831.66;4985656;28;20108;-61
2023/02/02 04:25:52;;;;;;;1.52;0.80;;;;;;;5.37;48.83;96815.75;4985234;28;20133;-61
2023/02/02 04:28:19;;;;;;;0.60;0.60;;;;;;;5.45;48.82;96839.56;4985680;28;20148;-60
2023/02/02 04:30:46;;;;;;;1.95;0.95;;;;;;;5.28;49.08;96807.59;4995932;28;20041;-59
2023/02/02 04:33:12;;;;;;;1.23;0.82;;;;;;;5.34;47.70;96799.94;5003663;28;20080;-63
2023/02/02 04:35:39;;;;;;;0.50;0.50;;;;;;;5.61;46.94;96837.75;5003118;28;20085;-59
2023/02/02 04:38:06;;;;;;;0.50;0.50;;;;;;;5.65;48.73;96833.13;5003589;28;20057;-62
2023/02/02 04:40:32;;;;;;;1.05;0.98;;;;;;;5.59;49.82;96834.53;5004964;28;20061;-63
2023/02/02 04:42:59;;;;;;;0.60;0.60;;;;;;;5.12;51.21;96775.69;5004693;28;20053;-61
2023/02/02 04:45:26;;;;;;;0.88;0.88;;;;;;;5.35;49.80;96834.50;5003758;28;20069;-60
2023/02/02 04:47:53;;;;;;;1.38;1.17;;;;;;;5.40;50.06;96837.84;5004687;28;20045;-60
2023/02/02 04:50:19;;;;;;;1.92;1.70;;;;;;;5.36;52.08;96844.34;5004273;28;20053;-61
2023/02/02 04:52:46;;;;;;;3.65;1.23;;;;;;;5.29;50.54;96833.13;5003037;28;20502;-61
2023/02/02 04:55:13;;;;;;;0.60;0.60;;;;;;;4.97;49.22;96784.56;5004573;28;20111;-60
2023/02/02 04:57:40;;;;;;;0.60;0.60;;;;;;;5.29;49.83;96835.88;5004175;28;20580;-60
2023/02/02 05:00:10;;;;;;;1.50;1.40;;;;;;;4.78;49.60;96759.59;5003192;28;20386;-62
2023/02/02 05:02:38;;;;;;;0.60;0.60;;;;;;;5.34;49.75;96858.41;5003719;28;20046;-60
2023/02/02 05:05:07;;;;;;;0.60;0.60;;;;;;;5.40;48.30;96868.06;5004449;28;20049;-62
2023/02/02 05:07:34;;;;;;;0.50;0.50;;;;;;;5.47;48.38;96881.22;5004076;28;20678;-60
2023/02/02 05:10:01;;;;;;;0.82;0.82;;;;;;;5.47;47.37;96853.75;5003833;28;20131;-61
2023/02/02 05:12:27;;;;;;;0.70;0.70;;;;;;;5.64;47.75;96881.00;5004673;28;20127;-61
2023/02/02 05:14:54;;;;;;;1.55;0.75;;;;;;;5.06;48.44;96799.00;5003164;28;20046;-60
2023/02/02 05:17:20;;;;;;;0.73;0.70;;;;;;;5.54;49.06;96876.75;5002208;28;20560;-60
2023/02/02 05:19:47;;;;;;;0.52;0.52;;;;;;;5.26;50.15;96842.03;5004554;28;20049;-60
2023/02/02 05:22:14;;;;;;;0.50;0.50;;;;;;;4.78;50.81;96795.28;5003948;28;20561;-60
2023/02/02 05:24:40;;;;;;;1.30;0.85;;;;;;;5.23;51.49;96886.66;5002811;28;20133;-61
2023/02/02 05:27:07;;;;;;;1.10;1.02;;;;;;;5.15;52.60;96893.84;5004019;28;20053;-60
2023/02/02 05:29:33;;;;;;;1.92;1.77;;;;;;;4.99;52.12;96879.16;5001875;28;20049;-62
2023/02/02 05:32:00;;;;;;;0.65;0.65;;;;;;;5.09;52.68;96894.41;5003641;28;20136;-60
2023/02/02 05:34:27;;;;;;;0.50;0.50;;;;;;;4.96;53.29;96892.75;5004182;28;20053;-62
2023/02/02 05:36:53;;;;;;;0.60;0.60;;;;;;;4.80;54.09;96895.31;5002197;28;20508;-60
2023/02/02 05:39:20;;;;;;;1.05;1.05;;;;;;;4.59;52.24;96895.34;5003258;28;20050;-60
2023/02/02 05:41:47;;;;;;;0.77;0.77;;;;;;;4.96;52.03;96904.53;5003268;28;20054;-61
2023/02/02 05:44:13;;;;;;;0.90;0.90;;;;;;;4.87;51.07;96878.31;5002483;28;20139;-60
2023/02/02 05:46:40;;;;;;;0.50;0.50;;;;;;;4.98;53.28;96909.69;5003384;28;20066;-61
2023/02/02 05:49:12;;;;;;;0.45;0.45;;;;;;;4.39;53.74;96813.88;5002645;28;20050;-60
2023/02/02 05:51:49;;;;;;;0.73;0.73;;;;;;;4.41;55.40;96850.00;4993120;28;20593;-58
2023/02/02 05:54:19;;;;;;;0.95;0.93;;;;;;;4.37;55.97;96876.50;4984229;28;20064;-61
2023/02/02 05:56:47;;;;;;;1.30;1.25;;;;;;;4.89;54.26;96915.25;4984029;28;20495;-62
2023/02/02 05:59:13;;;;;;;0.60;0.60;;;;;;;5.06;53.68;96936.25;4982140;28;20072;-60
2023/02/02 06:01:40;;;;;;;1.50;1.40;;;;;;;4.73;53.45;96858.63;4984047;28;20398;-61
2023/02/02 06:04:07;;;;;;;0.50;0.50;;;;;;;5.22;53.84;96923.47;4996956;28;20046;-62
2023/02/02 06:06:34;;;;;;;1.65;1.55;;;;;;;5.41;53.48;96932.00;5001846;28;20050;-61
2023/02/02 06:09:01;;;;;;;0.60;0.60;;;;;;;5.53;54.23;96918.31;4999079;28;20057;-63
2023/02/02 06:11:28;;;;;;;0.50;0.50;;;;;;;5.53;54.15;96918.31;4984162;28;20058;-60
2023/02/02 06:13:55;;;;;;;0.50;0.50;;;;;;;5.60;55.13;96918.53;4987926;28;20081;-60
2023/02/02 06:16:22;;;;;;;0.80;0.80;;;;;;;5.60;53.02;96907.53;4986887;28;20540;-60
2023/02/02 06:18:50;;;;;;;0.60;0.60;;;;;;;5.43;50.91;96858.31;5000185;28;20096;-61
2023/02/02 06:21:18;;;;;;;0.75;0.75;;;;;;;5.73;50.92;96918.22;5005831;28;20088;-62
2023/02/02 06:23:45;;;;;;;1.58;1.48;;;;;;;5.82;52.00;96937.38;5007048;28;20061;-61
2023/02/02 06:26:13;;;;;;;0.73;0.73;;;;;;;5.51;51.53;96898.59;5006957;28;20506;-60
2023/02/02 06:28:40;;;;;;;1.48;1.30;;;;;;;5.46;50.39;96863.13;4989699;28;20096;-61
2023/02/02 06:31:09;;;;;;;1.08;0.75;;;;;;;6.03;50.32;96954.56;4998773;28;20096;-61
2023/02/02 06:33:37;;;;;;;0.70;0.70;;;;;;;5.58;49.79;96860.41;5002836;28;20162;-61
2023/02/02 06:36:05;;;;;;;2.38;1.35;;;;;;;6.10;50.25;96949.31;5005620;28;20053;-61
2023/02/02 06:38:32;;;;;;;1.75;1.05;;;;;;;5.87;49.77;96904.16;5006608;28;20057;-60
2023/02/02 06:41:00;;;;;;;1.52;1.42;;;;;;;5.63;49.84;96865.66;5006526;28;20077;-61
2023/02/02 06:43:28;;;;;;;0.85;0.73;;;;;;;6.35;49.87;96937.16;5006290;28;20057;-61
2023/02/02 06:45:58;;;;;;;0.60;0.60;;;;;;;6.36;50.36;96924.19;5006812;28;20086;-61
2023/02/02 06:48:25;;;;;;;0.88;0.88;;;;;;;6.09;50.28;96898.19;5005877;28;20101;-57
2023/02/02 06:50:52;;;;;;;0.60;0.60;;;;;;;5.55;49.49;96756.66;5001913;28;20600;-58
2023/02/02 06:53:22;;;;;;;0.60;0.60;;;;;;;6.67;49.45;96936.16;5002637;28;20115;-58
2023/02/02 06:55:57;;;;;;;1.95;1.25;;;;;;;6.88;49.54;96933.22;5000224;28;20134;-58
2023/02/02 06:58:24;;;;;;;4.78;1.05;;;;;;;6.77;49.19;96907.34;5001780;28;20591;-59
2023/02/02 07:00:50;;;;;;;1.05;1.05;;;;;;;6.99;47.79;96965.44;4997946;28;20528;-56
2023/02/02 07:03:20;;;;;;;0.80;0.80;;;;;;;6.96;47.12;96894.56;4997480;28;20077;-61
2023/02/02 07:05:50;;;;;;;1.27;1.17;;;;;;;7.09;47.01;96904.38;4993080;28;20133;-60
2023/02/02 07:08:16;;;;;;;0.93;0.93;;;;;;;7.36;46.38;96922.84;5002054;28;20042;-58
2023/02/02 07:10:43;;;;;;;0.70;0.70;;;;;;;7.06;46.11;96850.00;5005112;28;20062;-56
2023/02/02 07:13:30;;;;;;;0.70;0.70;;;;;;;7.92;46.56;96947.53;4994957;28;20038;-61
2023/02/02 07:15:57;;;;;;;0.73;0.73;;;;;;;8.01;46.27;96939.88;4989836;28;20057;-58
2023/02/02 07:18:23;;;;;;;0.60;0.60;;;;;;;8.18;45.24;96943.06;5001608;28;20082;-60
2023/02/02 07:20:50;;;;;;;1.77;1.67;;;;;;;8.49;45.29;96950.53;4989767;28;20056;-56
2023/02/02 07:23:17;;;;;;;0.70;0.70;;;;;;;8.83;45.13;96944.22;5001053;28;20071;-58
2023/02/02 07:25:43;;;;;;;2.20;2.00;;;;;;;8.89;43.59;96906.84;5004417;28;20057;-56
2023/02/02 07:28:10;;;;;;;1.92;1.92;;;;;;;9.23;43.56;96935.59;5004396;28;20523;-56
2023/02/02 07:30:37;;;;;;;1.35;1.20;;;;;;;8.72;43.54;96832.72;5005092;28;20563;-58
2023/02/02 07:33:03;;;;;;;1.13;1.00;;;;;;;9.33;43.04;96930.25;5004779;28;20424;-57
2023/02/02 07:35:30;;;;;;;1.02;1.02;;;;;;;8.97;43.69;96892.03;5002126;28;20050;-57
2023/02/02 07:37:57;;;;;;;1.05;1.05;;;;;;;9.33;44.02;96952.38;5003357;28;20339;-61
2023/02/02 07:40:23;;;;;;;1.70;1.38;;;;;;;9.45;43.78;96988.19;4994677;28;20074;-59
2023/02/02 07:42:50;;;;;;;3.10;2.53;;;;;;;9.28;43.34;96955.44;4991696;28;20500;-59
2023/02/02 07:45:17;;;;;;;1.10;1.10;;;;;;;9.39;43.76;96945.38;4998730;28;20046;-61
2023/02/02 07:47:57;;;;;;;0.88;0.88;;;;;;;9.51;42.96;96934.19;4987801;28;20257;-61
2023/02/02 07:50:24;;;;;;;3.03;1.38;;;;;;;9.42;41.94;96944.66;5004844;28;20060;-60
2023/02/02 07:52:51;;;;;;;6.35;2.78;;;;;;;9.46;43.15;96940.00;5001132;28;20073;-60
2023/02/02 07:55:19;;;;;;;1.17;1.17;;;;;;;9.51;42.71;96944.44;5000612;28;20069;-61
2023/02/02 07:57:45;;;;;;;3.20;1.88;;;;;;;9.30;42.33;96886.78;4993098;28;20572;-57
2023/02/02 08:00:13;;;;;;;8.15;2.55;;;;;;;9.57;43.18;96916.13;4999119;28;20484;-57
2023/02/02 08:02:39;;;;;;;2.35;2.15;;;;;;;9.62;42.62;96907.53;4982768;28;20054;-57
2023/02/02 08:05:06;;;;;;;6.13;3.38;;;;;;;9.36;42.22;96879.78;4982894;28;20050;-57
2023/02/02 08:07:33;;;;;;;1.77;1.67;;;;;;;9.69;42.02;96927.00;4986030;28;20437;-62
2023/02/02 08:10:00;;;;;;;1.58;1.30;;;;;;;9.63;42.77;96925.72;5007089;28;20054;-61
2023/02/02 08:12:27;;;;;;;0.90;0.90;;;;;;;9.82;42.86;96930.41;5000371;28;20126;-59
2023/02/02 08:14:53;;;;;;;15.15;2.60;;;;;;;9.49;41.89;96889.50;5000210;28;20100;-58
2023/02/02 08:17:22;;;;;;;2.42;1.48;;;;;;;9.73;41.92;96927.88;4983336;28;20498;-60
2023/02/02 08:19:49;;;;;;;0.80;0.80;;;;;;;9.83;41.38;96957.69;4996603;28;20045;-57
2023/02/02 08:22:16;;;;;;;2.55;1.10;;;;;;;9.62;41.75;96937.94;5002040;28;20084;-57
2023/02/02 08:24:45;;;;;;;0.82;0.82;;;;;;;9.68;41.83;96958.59;4988928;28;20089;-58
2023/02/02 08:27:12;;;;;;;1.60;1.60;;;;;;;9.53;41.66;96923.53;4983720;28;20485;-61
2023/02/02 08:29:39;;;;;;;1.35;1.00;;;;;;;9.85;40.90;96941.53;4987866;28;20137;-59
2023/02/02 08:32:05;;;;;;;0.95;0.95;;;;;;;9.97;41.42;96938.59;4988406;28;20038;-59
2023/02/02 08:34:35;;;;;;;0.80;0.80;;;;;;;10.01;41.12;96961.59;5002593;28;20046;-57
2023/02/02 08:37:03;;;;;;;1.67;1.58;;;;;;;10.00;41.78;96960.00;5003233;28;20528;-56
2023/02/02 08:39:29;;;;;;;8.73;2.80;;;;;;;9.77;41.45;96950.88;5004342;28;20111;-59
2023/02/02 08:41:56;;;;;;;2.10;1.83;;;;;;;9.48;41.37;96909.22;5003317;28;20060;-57
2023/02/02 08:44:23;;;;;;;3.80;2.75;;;;;;;9.89;41.57;96956.25;4998581;28;20057;-56
2023/02/02 08:46:53;;;;;;;0.93;0.93;;;;;;;9.32;41.50;96884.44;4991583;28;20157;-59
2023/02/02 08:49:19;;;;;;;0.90;0.90;;;;;;;9.12;41.04;96853.25;4991737;28;20105;-55
2023/02/02 08:51:46;;;;;;;2.63;1.02;;;;;;;9.69;41.47;96943.59;4993367;28;20042;-56
2023/02/02 08:54:13;;;;;;;1.95;1.13;;;;;;;9.77;41.83;96952.84;5002762;28;20161;-59
2023/02/02 08:56:40;;;;;;;1.00;1.00;;;;;;;9.92;41.76;96944.44;5003371;28;20050;-58
2023/02/02 08:59:07;;;;;;;4.07;1.83;;;;;;;9.92;41.12;96938.09;5002550;28;20586;-56
2023/02/02 09:01:34;;;;;;;0.80;0.80;;;;;;;9.32;41.09;96823.66;5003427;28;20058;-58
2023/02/02 09:04:03;;;;;;;2.45;1.55;;;;;;;10.12;40.41;96923.84;5001640;28;20054;-56
2023/02/02 09:06:34;;;;;;;1.33;1.33;;;;;;;10.27;39.70;96927.66;5002568;28;20085;-56
2023/02/02 09:09:03;;;;;;;0.80;0.80;;;;;;;10.46;39.63;96914.50;4998094;28;20123;-58
2023/02/02 09:11:30;;;;;;;0.90;0.90;;;;;;;10.60;38.55;96911.97;4993525;28;20065;-57
2023/02/02 09:13:59;;;;;;;0.82;0.82;;;;;;;10.34;37.99;96870.44;4994340;28;20065;-58
2023/02/02 09:16:26;;;;;;;0.90;0.90;;;;;;;10.78;37.80;96909.44;5003726;28;20080;-59
2023/02/02 09:18:54;;;;;;;1.30;1.20;;;;;;;10.49;37.72;96855.63;4997824;28;20054;-61
2023/02/02 09:21:22;;;;;;;1.30;1.20;;;;;;;10.03;37.95;96775.81;4982476;28;20132;-61
2023/02/02 09:23:52;;;;;;;0.80;0.80;;;;;;;10.54;37.92;96876.66;4996056;28;20057;-62
2023/02/02 09:26:25;;;;;;;1.00;1.00;;;;;;;10.50;38.34;96873.84;5000720;28;20046;-59
2023/02/02 09:29:02;;;;;;;0.80;0.80;;;;;;;9.87;37.81;96767.69;4997006;28;20046;-59
2023/02/02 09:31:33;;;;;;;1.58;1.42;;;;;;;9.89;39.06;96762.59;5002107;28;20058;-59
2023/02/02 09:34:01;;;;;;;1.00;1.00;;;;;;;10.64;37.54;96857.41;4993153;28;20070;-60
2023/02/02 09:36:29;;;;;;;0.90;0.90;;;;;;;10.77;37.48;96882.09;4991426;28;20107;-61
2023/02/02 09:38:55;;;;;;;0.80;0.80;;;;;;;8.48;36.92;96512.84;4996490;28;20569;-59
2023/02/02 09:41:37;;;;;;;2.30;1.00;;;;;;;10.85;36.13;96875.47;4999216;28;20050;-58
2023/02/02 09:44:29;;;;;;;0.90;0.90;;;;;;;11.06;36.38;96867.44;4996230;28;20097;-63
2023/02/02 09:47:20;;;;;;;1.92;1.83;;;;;;;11.35;35.24;96852.75;4987190;28;20513;-57
2023/02/02 09:49:58;;;;;;;1.00;1.00;;;;;;;10.71;35.62;96737.59;5005227;28;20057;-57
2023/02/02 09:52:57;;;;;;;1.08;1.08;;;;;;;8.82;36.26;96426.22;5006221;28;20143;-56
2023/02/02 09:55:39;;;;;;;3.75;1.77;;;;;;;11.41;33.81;96867.84;4991808;28;20054;-58
2023/02/02 09:58:10;;;;;;;1.00;1.00;;;;;;;11.46;35.00;96854.44;4990357;28;20096;-58
2023/02/02 10:00:44;;;;;;;1.05;1.05;;;;;;;11.39;35.82;96859.91;4998611;28;20077;-60
2023/02/02 10:03:20;;;;;;;;;;;;;;;11.44;35.58;96851.25;4990673;28;20056;-58
2023/02/02 10:06:02;;;;;;;1.00;1.00;;;;;;;11.24;35.47;96887.88;5005094;28;20018;-58
2023/02/02 10:08:37;;;;;;;0.88;0.88;;;;;;;11.05;35.62;96838.16;5002399;28;20049;-59
2023/02/02 10:11:24;;;;;;;1.05;1.05;;;;;;;11.12;35.58;96838.22;4988019;28;20058;-57
2023/02/02 10:13:55;;;;;;;1.42;1.10;;;;;;;10.89;35.64;96807.06;4995448;28;20085;-58
2023/02/02 10:16:23;;;;;;;3.33;1.17;;;;;;;10.96;36.29;96819.03;5002801;28;20065;-59
2023/02/02 10:18:59;;;;;;;1.10;0.90;;;;;;;11.02;36.90;96834.13;4999453;28;20120;-57
2023/02/02 10:21:47;;;;;;;1.45;1.20;;;;;;;11.13;36.54;96831.50;4996091;28;20143;-57
2023/02/02 10:24:27;;;;;;;1.00;1.00;;;;;;;10.89;35.49;96818.94;5001269;28;20057;-58
2023/02/02 10:27:07;;;;;;;1.23;1.23;;;;;;;10.79;36.43;96802.19;5005307;28;20054;-58
2023/02/02 10:29:40;;;;;;;2.25;1.15;;;;;;;11.02;37.02;96811.19;5009491;28;20124;-58
2023/02/02 10:32:22;;;;;;;2.00;1.17;;;;;;;11.03;35.76;96807.22;4988626;28;20062;-58
2023/02/02 10:34:54;;;;;;;0.90;0.90;;;;;;;11.11;36.87;96814.44;5013524;28;20479;-58
2023/02/02 10:38:06;;;;;;;1.77;1.67;;;;;;;11.22;36.51;96809.81;5012471;28;20057;-58
2023/02/02 10:41:08;;;;;;;1.15;1.10;;;;;;;11.39;35.67;96804.47;4993867;28;20053;-57
2023/02/02 10:43:58;;;;;;;3.33;1.98;;;;;;;9.02;35.61;96482.91;5013776;28;20527;-59
2023/02/02 10:46:27;;;;;;;1.75;1.65;;;;;;;10.51;35.73;96664.97;4998030;28;20086;-58
2023/02/02 10:49:28;;;;;;;1.27;1.17;;;;;;;11.50;34.73;96793.44;4988685;28;20566;-58
2023/02/02 10:52:09;;;;;;;1.92;1.50;;;;;;;11.55;35.33;96793.09;4992729;28;20136;-58
2023/02/02 10:54:45;;;;;;;2.08;1.48;;;;;;;11.51;35.12;96786.72;4994112;28;20077;-58
2023/02/02 10:57:37;;;;;;;1.20;1.20;;;;;;;11.43;35.25;96783.09;4984177;28;20124;-56
2023/02/02 11:00:21;;;;;;;1.20;1.20;;;;;;;11.14;35.24;96713.88;4997014;28;20168;-61
2023/02/02 11:02:50;;;;;;;0.98;0.98;;;;;;;11.24;34.92;96735.38;5001963;28;20513;-57
2023/02/02 11:08:13;;;;;;;1.13;1.13;;;;;;;11.66;34.47;96769.06;4998261;28;20060;-56
2023/02/02 11:10:41;;;;;;;;;;;;;;;11.86;33.94;96759.28;5005303;28;20045;-56
2023/02/02 11:13:14;;;;;;;0.80;0.80;;;;;;;11.40;33.94;96667.38;5000691;28;20721;-56
2023/02/02 11:15:41;;;;;;;1.10;1.10;;;;;;;11.88;33.90;96740.28;5006234;28;20046;-57
2023/02/02 11:18:34;;;;;;;1.08;1.08;;;;;;;11.87;32.93;96752.59;4997257;28;20129;-60
2023/02/02 11:21:01;;;;;;;1.00;1.00;;;;;;;11.56;33.79;96750.31;5004866;28;20064;-58
2023/02/02 11:23:28;;;;;;;1.02;1.02;;;;;;;11.53;34.13;96740.78;4998413;28;20299;-59
2023/02/02 11:26:00;;;;;;;1.50;1.40;;;;;;;11.47;34.81;96758.16;4985827;28;20057;-59
2023/02/02 11:28:32;;;;;;;0.88;0.88;;;;;;;11.21;34.45;96725.03;4990884;28;20054;-59
2023/02/02 11:30:59;;;;;;;0.80;0.80;;;;;;;10.40;34.43;96569.91;5004536;28;20057;-59
2023/02/02 11:33:31;;;;;;;1.35;1.25;;;;;;;11.79;34.48;96734.28;4991466;28;20045;-59
2023/02/02 11:36:17;;;;;;;1.40;1.30;;;;;;;11.71;34.22;96724.31;5001584;28;20057;-57
2023/02/02 11:38:43;;;;;;;1.58;1.48;;;;;;;11.79;35.03;96728.75;4998809;28;20343;-57
2023/02/02 11:41:14;;;;;;;0.90;0.90;;;;;;;10.89;35.62;96579.84;4985837;28;20512;-59
2023/02/02 11:43:52;;;;;;;0.95;0.95;;;;;;;11.50;35.23;96682.50;4992041;28;20065;-58
2023/02/02 11:46:20;;;;;;;7.10;1.70;;;;;;;11.48;35.21;96718.13;5002679;28;20165;-56
2023/02/02 11:48:59;;;;;;;2.47;1.33;;;;;;;11.37;35.75;96706.16;5004333;28;20045;-57
2023/02/02 11:51:27;;;;;;;2.15;1.63;;;;;;;11.33;36.87;96699.81;5005645;28;20053;-56
2023/02/02 11:54:22;;;;;;;1.67;1.58;;;;;;;11.34;36.52;96696.66;5016359;28;20528;-57
2023/02/02 11:56:53;;;;;;;4.13;2.75;;;;;;;11.51;36.45;96700.72;5008312;28;20054;-58
2023/02/02 11:59:28;;;;;;;1.83;1.58;;;;;;;11.31;35.35;96650.28;5004935;28;20049;-55
2023/02/02 12:02:21;;;;;;;17.02;7.43;;;;;;;11.72;36.62;96698.97;5001125;28;20484;-57
2023/02/02 12:04:51;;;;;;;1.10;1.10;;;;;;;11.81;36.46;96698.59;5002842;28;20054;-61
2023/02/02 12:07:30;;;;;;;6.93;2.47;;;;;;;11.75;37.10;96695.41;4990714;28;20164;-59
2023/02/02 12:10:12;;;;;;;2.45;1.58;;;;;;;11.44;37.04;96659.09;4998859;28;20054;-58
2023/02/02 12:13:23;;;;;;;2.22;2.13;;;;;;;11.70;37.42;96694.97;4991956;28;20088;-60